Comotara, Kansas
Current Conditions -  °F | °C
As of 10:30 AM on Friday 19 Dec 2014 (Local Time) from KAAO Reporting Station
Overcast Overcast  
Wind Chill: 31°   Ceiling: 1700
Heat Index: 31°   Visibility: 9mi
Dew Point: 30°   Wind: 3mph
Humidity: 96%   Direction: 140°SE
Pressure: 30.26"   Gusts: NA
Location:  37.7646°N, 97.2186°W
Report Text: KAAO 191630Z AUTO 14003KT 9SM FEW004 OVC017 M01/M01 A3026 RMK AO2 T10061011
Loading
Personal Weather Stations






























Interactive Weather Map New forecast layout! Learn more

10-Day Weather Forecast

Advertisements
Track Severe Weather on mobile